Time;durP1;ratioP1;P1;durP2;ratioP2;P2;SDS_P1;SDS_P2;PMS_P1;PMS_P2;Temp;Humidity;BMP_temperature;BMP_pressure;BME280_temperature;BME280_humidity;BME280_pressure;Samples;Min_cycle;Max_cycle;Signal;HPM_P1;HPM_P2
2022/08/23 00:00:43;;;;;;;3.80;2.35;;;19.70;74.00;;;;;;4927296;29;20032;-84
2022/08/23 00:03:09;;;;;;;5.88;2.13;;;19.70;74.20;;;;;;4933455;29;20035;-83
2022/08/23 00:05:35;;;;;;;1.80;1.33;;;19.70;74.40;;;;;;4925235;29;20028;-83
2022/08/23 00:08:00;;;;;;;4.60;1.60;;;19.70;74.50;;;;;;4929100;29;20036;-83
2022/08/23 00:10:26;;;;;;;5.05;1.80;;;19.60;74.40;;;;;;4929878;29;20088;-82
2022/08/23 00:12:51;;;;;;;2.88;2.15;;;19.60;74.80;;;;;;4932764;29;20412;-84
2022/08/23 00:15:19;;;;;;;3.72;1.58;;;19.60;74.70;;;;;;4932408;29;20036;-82
2022/08/23 00:17:45;;;;;;;5.68;2.17;;;19.60;74.80;;;;;;4933922;29;20036;-84
2022/08/23 00:20:16;;;;;;;7.88;3.17;;;19.50;75.10;;;;;;4932997;29;20507;-83
2022/08/23 00:22:42;;;;;;;4.80;1.75;;;19.50;74.80;;;;;;4929138;29;20032;-83
2022/08/23 00:25:10;;;;;;;6.47;1.48;;;19.50;75.20;;;;;;4931634;29;20449;-83
2022/08/23 00:27:36;;;;;;;2.22;1.77;;;19.50;75.60;;;;;;4932218;29;20031;-83
2022/08/23 00:30:05;;;;;;;4.88;2.30;;;19.40;75.50;;;;;;4928364;29;20068;-83
2022/08/23 00:32:34;;;;;;;6.40;1.88;;;19.40;75.70;;;;;;4930233;29;20063;-83
2022/08/23 00:35:00;;;;;;;6.57;1.95;;;19.30;75.80;;;;;;4928627;29;20105;-83
2022/08/23 00:37:28;;;;;;;3.20;1.88;;;19.30;76.10;;;;;;4929925;29;20059;-82
2022/08/23 00:39:53;;;;;;;5.75;1.95;;;19.30;76.00;;;;;;4928779;29;20393;-81
2022/08/23 00:47:59;;;;;;;4.28;3.15;;;19.40;76.50;;;;;;4930968;29;20054;-80
2022/08/23 00:50:30;;;;;;;4.00;1.95;;;19.40;75.90;;;;;;4930543;29;20071;-81
2022/08/23 00:53:17;;;;;;;4.82;2.08;;;19.40;75.90;;;;;;4933613;29;20036;-82
2022/08/23 00:55:46;;;;;;;3.50;1.98;;;19.40;75.40;;;;;;4931819;29;20028;-83
2022/08/23 00:58:14;;;;;;;3.60;1.50;;;19.40;75.50;;;;;;4929378;29;20091;-82
2022/08/23 01:00:39;;;;;;;4.15;1.83;;;19.40;75.90;;;;;;4930542;29;20031;-81
2022/08/23 01:03:09;;;;;;;5.50;2.05;;;19.40;75.90;;;;;;4929535;29;20378;-81
2022/08/23 01:05:46;;;;;;;5.32;2.10;;;19.40;76.00;;;;;;4929662;29;20613;-80
2022/08/23 01:08:11;;;;;;;3.58;1.52;;;19.30;76.10;;;;;;4932072;29;20524;-82
2022/08/23 01:10:49;;;;;;;3.65;1.30;;;19.30;76.20;;;;;;4933777;29;20102;-81
2022/08/23 01:13:51;;;;;;;5.55;2.20;;;19.30;76.20;;;;;;4928903;29;20115;-82
2022/08/23 01:16:24;;;;;;;7.45;1.63;;;19.30;76.30;;;;;;4892671;29;20099;-83
2022/08/23 01:18:51;;;;;;;4.72;1.73;;;19.20;76.60;;;;;;4926701;29;20028;-84
2022/08/23 01:21:30;;;;;;;3.08;1.48;;;19.20;76.90;;;;;;4925558;29;20062;-83
2022/08/23 01:23:59;;;;;;;7.32;1.67;;;19.20;76.70;;;;;;4930692;29;20035;-83
2022/08/23 01:26:26;;;;;;;3.20;1.88;;;19.10;76.90;;;;;;4932162;29;20122;-81
2022/08/23 01:28:53;;;;;;;5.60;3.10;;;19.10;77.10;;;;;;4948350;23;20455;-75
2022/08/23 01:31:21;;;;;;;4.38;2.03;;;19.00;77.40;;;;;;4970065;28;20055;-75
2022/08/23 01:33:54;;;;;;;6.15;2.22;;;19.00;77.80;;;;;;4956662;28;20020;-75
2022/08/23 01:36:20;;;;;;;7.32;2.65;;;18.90;77.90;;;;;;4958633;28;20046;-75
2022/08/23 01:38:46;;;;;;;7.50;4.40;;;18.90;78.10;;;;;;4952800;28;20043;-75
2022/08/23 01:41:12;;;;;;;8.95;5.40;;;18.80;78.40;;;;;;4948365;29;20447;-75
2022/08/23 01:43:37;;;;;;;12.80;7.53;;;18.90;78.50;;;;;;4944704;29;20031;-75
2022/08/23 01:46:13;;;;;;;7.78;6.18;;;18.80;78.50;;;;;;4943254;29;20031;-75
2022/08/23 01:48:39;;;;;;;26.13;18.15;;;18.80;79.00;;;;;;4946320;28;20110;-75
2022/08/23 01:51:06;;;;;;;17.33;11.85;;;18.70;79.30;;;;;;4950752;28;20420;-75
2022/08/23 01:53:31;;;;;;;15.13;7.57;;;18.70;79.00;;;;;;4945108;29;20111;-75
2022/08/23 01:56:00;;;;;;;10.73;4.57;;;18.70;79.10;;;;;;4949527;28;20106;-75
2022/08/23 01:58:26;;;;;;;10.98;5.07;;;18.70;79.40;;;;;;4946386;28;20031;-75
2022/08/23 02:00:52;;;;;;;7.57;3.92;;;18.70;79.70;;;;;;4946861;28;20031;-75
2022/08/23 02:03:18;;;;;;;3.40;2.35;;;18.70;79.80;;;;;;4945145;28;20035;-75
2022/08/23 02:05:44;;;;;;;7.60;3.92;;;18.70;79.80;;;;;;4946076;29;20028;-75
2022/08/23 02:10:54;;;;;;;6.85;3.45;;;18.70;80.30;;;;;;4952952;28;20121;-75
2022/08/23 02:13:20;;;;;;;5.50;2.55;;;18.60;79.90;;;;;;4950511;28;20035;-75
2022/08/23 02:15:50;;;;;;;5.07;2.83;;;18.60;80.60;;;;;;4949866;28;20063;-75
2022/08/23 02:18:18;;;;;;;4.43;2.40;;;18.50;80.80;;;;;;4948758;28;20031;-75
2022/08/23 02:20:48;;;;;;;5.85;2.72;;;18.50;81.10;;;;;;4952206;28;20019;-75
2022/08/23 02:23:14;;;;;;;8.77;3.63;;;18.50;81.20;;;;;;4950114;28;20023;-75
2022/08/23 02:25:40;;;;;;;4.00;2.85;;;18.50;81.40;;;;;;4949980;28;20431;-75
2022/08/23 02:28:07;;;;;;;4.70;2.63;;;18.40;81.50;;;;;;4948814;28;20046;-75
2022/08/23 02:30:32;;;;;;;4.80;2.30;;;18.40;81.50;;;;;;4949225;29;20036;-75
2022/08/23 02:32:58;;;;;;;5.57;3.38;;;18.40;81.80;;;;;;4951529;28;20023;-75
2022/08/23 02:35:24;;;;;;;4.22;2.25;;;18.40;82.10;;;;;;4948551;28;20050;-75
2022/08/23 02:37:51;;;;;;;6.80;2.40;;;18.50;82.50;;;;;;4949258;28;20031;-75
2022/08/23 02:40:17;;;;;;;8.98;3.72;;;18.40;82.30;;;;;;4951240;28;20039;-75
2022/08/23 02:42:42;;;;;;;5.03;2.63;;;18.40;82.10;;;;;;4948917;28;20451;-75
2022/08/23 02:45:08;;;;;;;5.80;2.42;;;18.50;82.50;;;;;;4948379;28;20043;-74
2022/08/23 02:47:37;;;;;;;4.50;2.65;;;18.40;82.50;;;;;;4947391;28;20031;-74
2022/08/23 02:50:06;;;;;;;4.43;2.97;;;18.40;82.70;;;;;;4952979;28;20473;-74
2022/08/23 02:52:32;;;;;;;7.80;2.80;;;18.40;83.70;;;;;;4947912;28;20050;-74
2022/08/23 02:54:57;;;;;;;2.97;2.45;;;18.40;83.70;;;;;;4951229;29;20023;-74
2022/08/23 02:57:23;;;;;;;5.05;2.65;;;18.30;84.10;;;;;;4950348;28;20503;-74
2022/08/23 02:59:49;;;;;;;8.15;3.28;;;18.30;83.80;;;;;;4946623;28;20057;-74
2022/08/23 03:02:14;;;;;;;9.40;3.58;;;18.20;83.80;;;;;;4948408;29;20035;-74
2022/08/23 03:04:40;;;;;;;7.68;3.35;;;18.20;83.60;;;;;;4949985;28;20075;-74
2022/08/23 03:07:06;;;;;;;9.82;3.70;;;18.20;84.30;;;;;;4951582;28;20046;-74
2022/08/23 03:09:31;;;;;;;4.65;2.70;;;18.20;84.60;;;;;;4950221;28;20035;-74
2022/08/23 03:11:57;;;;;;;4.10;2.70;;;18.20;84.80;;;;;;4950359;28;20035;-74
2022/08/23 03:14:24;;;;;;;11.32;4.28;;;18.20;84.90;;;;;;4950082;28;20102;-74
2022/08/23 03:16:49;;;;;;;6.95;2.53;;;18.10;85.00;;;;;;4945668;28;20082;-74
2022/08/23 03:19:15;;;;;;;8.10;3.33;;;18.00;85.40;;;;;;4948643;28;20496;-74
2022/08/23 03:21:42;;;;;;;4.15;2.70;;;18.00;85.90;;;;;;4949542;28;20027;-74
2022/08/23 03:24:07;;;;;;;6.93;3.33;;;17.90;85.50;;;;;;4951303;28;20031;-76
2022/08/23 03:26:33;;;;;;;4.88;2.75;;;17.90;86.00;;;;;;4947741;28;20027;-75
2022/08/23 03:28:58;;;;;;;6.70;2.88;;;17.80;86.50;;;;;;4949024;28;20118;-76
2022/08/23 03:31:24;;;;;;;5.40;2.85;;;17.80;87.10;;;;;;4949681;28;20032;-75
2022/08/23 03:33:50;;;;;;;6.07;3.20;;;17.80;87.20;;;;;;4950886;28;20102;-76
2022/08/23 03:36:16;;;;;;;10.13;3.90;;;17.90;87.20;;;;;;4949695;28;20118;-74
2022/08/23 03:38:41;;;;;;;8.65;3.42;;;17.80;87.30;;;;;;4947777;28;20086;-74
2022/08/23 03:41:08;;;;;;;3.75;2.92;;;17.80;87.90;;;;;;4950777;28;20032;-76
2022/08/23 03:43:34;;;;;;;10.05;3.75;;;17.70;88.00;;;;;;4946825;28;20023;-75
2022/08/23 03:45:59;;;;;;;5.43;3.05;;;17.70;88.00;;;;;;4950315;28;20369;-75
2022/08/23 03:48:25;;;;;;;5.80;3.65;;;17.70;88.60;;;;;;4949621;28;20038;-74
2022/08/23 03:50:51;;;;;;;7.72;4.07;;;17.60;88.80;;;;;;4950720;28;20396;-75
2022/08/23 03:53:16;;;;;;;7.00;4.63;;;17.50;89.50;;;;;;4948730;28;20047;-75
2022/08/23 03:55:43;;;;;;;9.35;5.05;;;17.50;90.20;;;;;;4949667;28;20038;-75
2022/08/23 03:58:09;;;;;;;9.55;5.60;;;17.50;90.30;;;;;;4949105;28;20114;-75
2022/08/23 04:00:35;;;;;;;13.88;6.78;;;17.40;90.60;;;;;;4944316;29;20038;-75
2022/08/23 04:03:00;;;;;;;14.25;8.82;;;17.40;90.80;;;;;;4944568;29;20396;-75
2022/08/23 04:05:27;;;;;;;12.88;8.88;;;17.50;90.80;;;;;;4949710;28;20583;-75
2022/08/23 04:07:52;;;;;;;10.68;7.07;;;17.60;90.80;;;;;;4944502;29;20498;-75
2022/08/23 04:10:18;;;;;;;6.88;5.40;;;17.60;90.90;;;;;;4948746;28;20106;-75
2022/08/23 04:12:44;;;;;;;13.88;10.07;;;17.50;91.10;;;;;;4944925;28;20465;-75
2022/08/23 04:15:10;;;;;;;12.70;6.18;;;17.40;91.40;;;;;;4946711;28;20476;-75
2022/08/23 04:17:36;;;;;;;13.68;6.88;;;17.40;91.60;;;;;;4947278;29;20035;-75
2022/08/23 04:20:03;;;;;;;7.68;6.05;;;17.40;91.80;;;;;;4945494;28;20456;-76
2022/08/23 04:22:29;;;;;;;8.98;4.75;;;17.40;91.90;;;;;;4943605;28;20086;-76
2022/08/23 04:24:54;;;;;;;7.80;4.68;;;17.40;91.70;;;;;;4947219;29;20023;-74
2022/08/23 04:27:21;;;;;;;8.80;5.30;;;17.50;92.20;;;;;;4944876;28;20106;-75
2022/08/23 04:29:46;;;;;;;9.90;5.63;;;17.40;92.30;;;;;;4944775;28;20821;-75
2022/08/23 04:32:13;;;;;;;8.10;5.20;;;17.40;92.30;;;;;;4944804;28;20130;-75
2022/08/23 04:34:41;;;;;;;18.65;9.95;;;17.40;92.50;;;;;;4945844;28;20067;-78
2022/08/23 04:37:07;;;;;;;12.90;7.90;;;17.40;92.80;;;;;;4945977;29;20122;-78
2022/08/23 04:42:16;;;;;;;11.75;8.90;;;17.50;92.80;;;;;;4947531;28;20030;-79
2022/08/23 04:42:19;;;;;;;18.48;9.98;;;17.60;92.90;;;;;;4945795;29;21064;-73
2022/08/23 04:44:44;;;;;;;20.73;11.63;;;17.80;92.90;;;;;;4944700;28;20027;-73
2022/08/23 04:47:10;;;;;;;15.73;10.13;;;18.00;92.80;;;;;;4947303;28;20407;-74
2022/08/23 04:49:36;;;;;;;20.58;11.88;;;18.20;92.60;;;;;;4947290;28;20480;-73
2022/08/23 04:52:02;;;;;;;19.88;11.93;;;18.40;92.20;;;;;;4948727;28;20065;-72
2022/08/23 04:54:28;;;;;;;23.55;12.35;;;18.50;92.00;;;;;;4948117;29;20472;-72
2022/08/23 04:56:54;;;;;;;12.20;7.18;;;18.60;91.90;;;;;;4947719;28;20094;-73
2022/08/23 04:59:19;;;;;;;9.85;6.53;;;18.80;91.60;;;;;;4945701;28;20105;-72
2022/08/23 05:01:45;;;;;;;7.70;5.85;;;19.00;91.30;;;;;;4947460;29;21351;-71
2022/08/23 05:04:10;;;;;;;9.65;6.45;;;19.20;90.70;;;;;;4949896;28;20031;-73
2022/08/23 05:06:37;;;;;;;7.63;5.68;;;19.40;90.40;;;;;;4950436;28;20404;-72
2022/08/23 05:09:03;;;;;;;9.20;4.70;;;19.60;90.10;;;;;;4947381;28;20449;-70
2022/08/23 05:11:29;;;;;;;10.05;4.88;;;19.80;89.60;;;;;;4946792;29;20043;-72
2022/08/23 05:13:55;;;;;;;8.27;6.18;;;19.90;88.80;;;;;;4947676;28;20051;-72
2022/08/23 05:16:21;;;;;;;10.95;7.68;;;20.10;87.90;;;;;;4941635;29;20051;-76
2022/08/23 05:18:47;;;;;;;9.90;6.95;;;20.30;87.20;;;;;;4945767;28;20027;-68
2022/08/23 05:21:18;;;;;;;13.27;7.97;;;20.50;86.30;;;;;;4948412;28;20035;-68
2022/08/23 05:23:44;;;;;;;11.48;7.88;;;20.50;85.60;;;;;;4947089;29;20039;-68
2022/08/23 05:26:11;;;;;;;9.68;6.60;;;20.40;85.70;;;;;;4947760;28;20035;-69
2022/08/23 05:28:40;;;;;;;5.68;5.07;;;20.40;86.20;;;;;;4947270;28;20039;-69
2022/08/23 05:31:16;;;;;;;9.35;5.78;;;20.20;86.40;;;;;;4948757;28;20144;-69
2022/08/23 05:33:42;;;;;;;11.50;6.18;;;20.10;86.80;;;;;;4945219;28;20298;-69
2022/08/23 05:36:10;;;;;;;8.30;4.07;;;19.90;87.00;;;;;;4949070;28;20408;-69
2022/08/23 05:38:37;;;;;;;8.02;5.75;;;19.80;87.80;;;;;;4946944;28;20027;-69
2022/08/23 05:41:03;;;;;;;11.43;8.05;;;19.70;88.20;;;;;;4947609;28;20365;-68
2022/08/23 05:43:30;;;;;;;13.60;7.50;;;19.60;88.40;;;;;;4950567;28;20104;-69
2022/08/23 05:46:10;;;;;;;13.75;8.55;;;19.50;88.70;;;;;;4953726;28;20421;-69
2022/08/23 05:48:37;;;;;;;25.15;6.32;;;19.50;89.10;;;;;;4951003;28;20342;-68
2022/08/23 05:51:09;;;;;;;8.27;5.07;;;19.50;89.20;;;;;;4951935;28;20034;-68
2022/08/23 05:53:36;;;;;;;12.93;5.03;;;19.40;89.40;;;;;;4953348;28;20451;-68
2022/08/23 05:56:26;;;;;;;9.68;6.00;;;19.40;89.50;;;;;;4953341;28;20106;-68
2022/08/23 05:58:54;;;;;;;14.35;7.18;;;19.50;89.50;;;;;;4950142;28;20420;-66
2022/08/23 06:01:20;;;;;;;7.03;4.88;;;19.50;89.50;;;;;;4943774;28;20039;-69
2022/08/23 06:03:47;;;;;;;7.90;3.85;;;19.50;89.40;;;;;;4946198;28;20541;-71
2022/08/23 06:06:14;;;;;;;4.35;3.80;;;19.60;90.00;;;;;;4946532;28;20035;-65
2022/08/23 06:08:44;;;;;;;5.97;3.85;;;19.60;89.20;;;;;;4948597;28;20038;-66
2022/08/23 06:11:13;;;;;;;6.55;3.92;;;19.70;89.30;;;;;;4949388;29;20114;-67
2022/08/23 06:13:42;;;;;;;8.73;3.60;;;19.70;89.30;;;;;;4949197;29;20114;-66
2022/08/23 06:16:08;;;;;;;8.95;4.35;;;19.80;89.20;;;;;;4950663;28;20027;-65
2022/08/23 06:18:34;;;;;;;7.35;3.50;;;19.80;89.10;;;;;;4950167;28;20023;-68
2022/08/23 06:21:05;;;;;;;7.07;3.67;;;19.90;89.50;;;;;;4944978;28;20032;-67
2022/08/23 06:23:32;;;;;;;7.35;4.55;;;19.90;89.10;;;;;;4951333;28;20523;-67
2022/08/23 06:25:58;;;;;;;6.70;3.75;;;19.90;89.00;;;;;;4951257;28;20102;-67
2022/08/23 06:28:24;;;;;;;12.35;4.47;;;20.00;88.60;;;;;;4948666;29;20035;-66
2022/08/23 06:30:53;;;;;;;10.15;3.50;;;20.00;88.80;;;;;;4949230;28;20042;-68
2022/08/23 06:33:19;;;;;;;4.28;3.03;;;19.90;88.50;;;;;;4949515;29;20032;-67
2022/08/23 06:35:46;;;;;;;6.70;4.30;;;20.00;88.50;;;;;;4945121;29;20570;-65
2022/08/23 06:38:11;;;;;;;5.15;4.28;;;20.10;88.30;;;;;;4946147;29;20031;-66
2022/08/23 06:40:37;;;;;;;3.67;2.80;;;20.10;87.70;;;;;;4951273;28;20034;-68
2022/08/23 06:43:03;;;;;;;6.95;3.83;;;20.20;87.80;;;;;;4948600;29;20046;-67
2022/08/23 06:45:29;;;;;;;12.00;4.13;;;20.30;88.20;;;;;;4949200;28;20127;-68
2022/08/23 06:47:54;;;;;;;4.82;2.58;;;20.30;87.70;;;;;;4950047;28;20480;-68
2022/08/23 06:50:20;;;;;;;3.83;2.80;;;20.30;87.40;;;;;;4946726;28;20043;-67
2022/08/23 06:52:47;;;;;;;67.55;48.08;;;20.30;87.40;;;;;;4946935;28;20035;-71
2022/08/23 06:55:13;;;;;;;12.15;5.97;;;20.40;87.40;;;;;;4949433;29;20027;-68
2022/08/23 06:57:39;;;;;;;9.48;5.05;;;20.60;87.10;;;;;;4949594;28;20452;-68
2022/08/23 07:00:05;;;;;;;11.55;5.15;;;20.60;86.80;;;;;;4950028;28;20027;-69
2022/08/23 07:02:31;;;;;;;7.05;4.13;;;20.70;86.70;;;;;;4949489;28;20038;-68
2022/08/23 07:04:57;;;;;;;7.05;3.42;;;20.80;86.40;;;;;;4949619;28;20031;-70
2022/08/23 07:07:22;;;;;;;5.45;3.20;;;20.80;86.10;;;;;;4946257;28;20655;-69
2022/08/23 07:09:48;;;;;;;5.28;3.00;;;20.80;86.10;;;;;;4951257;28;20054;-68
2022/08/23 07:12:13;;;;;;;4.18;2.42;;;20.90;86.40;;;;;;4950681;28;20043;-67
2022/08/23 07:14:40;;;;;;;5.57;3.28;;;21.00;86.00;;;;;;4947066;28;20198;-69
2022/08/23 07:17:08;;;;;;;4.38;2.05;;;21.10;85.70;;;;;;4944415;28;20028;-67
2022/08/23 07:19:34;;;;;;;5.30;2.40;;;21.20;85.50;;;;;;4950577;28;20067;-67
2022/08/23 07:22:01;;;;;;;3.60;2.00;;;21.30;84.60;;;;;;4951872;28;20034;-68
2022/08/23 07:24:28;;;;;;;4.75;2.53;;;21.40;84.70;;;;;;4945482;29;20039;-68
2022/08/23 07:26:53;;;;;;;2.25;1.88;;;21.50;84.40;;;;;;4949843;29;20027;-69
2022/08/23 07:29:20;;;;;;;6.25;1.60;;;21.70;83.50;;;;;;4957804;23;20122;-72
2022/08/23 07:31:51;;;;;;;5.28;1.63;;;21.80;83.10;;;;;;4922397;29;20528;-74
2022/08/23 07:34:18;;;;;;;3.75;0.98;;;21.90;81.60;;;;;;4921941;29;20031;-75
2022/08/23 07:36:46;;;;;;;1.83;1.50;;;22.00;81.30;;;;;;4924075;29;20023;-74
2022/08/23 07:39:13;;;;;;;4.38;1.60;;;22.00;80.70;;;;;;4924073;29;20102;-70
2022/08/23 07:41:39;;;;;;;3.40;1.45;;;22.10;81.10;;;;;;4923578;29;20126;-78
2022/08/23 07:44:07;;;;;;;3.10;1.40;;;22.10;80.40;;;;;;4923711;29;20601;-74
2022/08/23 07:46:33;;;;;;;3.10;1.35;;;22.30;80.70;;;;;;4922560;29;20520;-76
2022/08/23 07:49:00;;;;;;;4.18;1.20;;;22.40;79.50;;;;;;4922578;29;20032;-76
2022/08/23 07:51:27;;;;;;;2.25;1.05;;;22.50;79.30;;;;;;4922774;29;20058;-77
2022/08/23 07:53:53;;;;;;;3.83;1.40;;;22.60;78.90;;;;;;4920503;29;20035;-77
2022/08/23 07:56:20;;;;;;;3.28;1.10;;;22.70;78.50;;;;;;4924090;29;20031;-77
2022/08/23 07:58:46;;;;;;;1.63;0.80;;;22.70;77.60;;;;;;4923301;29;20035;-76
2022/08/23 08:01:15;;;;;;;1.40;0.80;;;22.80;76.90;;;;;;4922759;29;20102;-78
2022/08/23 08:03:42;;;;;;;5.22;1.25;;;22.90;76.80;;;;;;4922386;29;20464;-76
2022/08/23 08:06:18;;;;;;;2.15;0.98;;;22.90;77.20;;;;;;4923082;29;20549;-76
2022/08/23 08:08:44;;;;;;;1.13;0.82;;;23.10;77.00;;;;;;4921926;29;20406;-77
2022/08/23 08:11:12;;;;;;;2.50;0.75;;;23.20;76.00;;;;;;4921927;29;20070;-77
2022/08/23 08:13:41;;;;;;;3.65;0.80;;;23.20;76.10;;;;;;4923612;29;20280;-80
2022/08/23 08:16:07;;;;;;;2.03;1.13;;;23.30;76.10;;;;;;4922640;29;20031;-77
2022/08/23 08:18:35;;;;;;;2.08;1.17;;;23.30;75.40;;;;;;4923334;29;20039;-77
2022/08/23 08:21:01;;;;;;;2.45;0.90;;;23.30;75.80;;;;;;4920754;29;20054;-77
2022/08/23 08:23:28;;;;;;;2.65;1.02;;;23.40;75.30;;;;;;4923197;29;20491;-75
2022/08/23 08:26:03;;;;;;;7.97;1.25;;;23.50;75.70;;;;;;4921245;29;20035;-76
2022/08/23 08:28:29;;;;;;;3.42;0.68;;;23.60;74.70;;;;;;4923820;29;20187;-76
2022/08/23 08:30:54;;;;;;;3.35;0.77;;;23.60;74.40;;;;;;4920979;29;20126;-77
2022/08/23 08:33:20;;;;;;;1.00;0.50;;;23.40;74.10;;;;;;4921709;29;20059;-78
2022/08/23 08:35:48;;;;;;;0.73;0.50;;;23.50;75.00;;;;;;4922496;29;20062;-80
2022/08/23 08:38:14;;;;;;;4.03;0.90;;;23.60;74.50;;;;;;4922609;29;20500;-76
2022/08/23 08:40:40;;;;;;;5.63;0.90;;;23.60;73.80;;;;;;4923266;29;20027;-77
2022/08/23 08:43:33;;;;;;;1.77;0.65;;;23.70;74.00;;;;;;4920949;29;20039;-74
2022/08/23 08:46:12;;;;;;;1.23;0.40;;;23.80;73.70;;;;;;4922572;29;20032;-75
2022/08/23 08:48:41;;;;;;;3.30;0.60;;;23.80;74.10;;;;;;4922201;29;20028;-75
2022/08/23 08:51:50;;;;;;;1.27;0.70;;;24.00;73.60;;;;;;4920109;29;20028;-74
2022/08/23 08:54:23;;;;;;;2.95;0.95;;;24.10;72.80;;;;;;4920245;29;20054;-75
2022/08/23 08:56:54;;;;;;;2.17;0.75;;;24.20;72.20;;;;;;4922398;29;20023;-75
2022/08/23 08:59:25;;;;;;;2.50;1.33;;;24.30;72.10;;;;;;4921342;29;20059;-76
2022/08/23 09:01:51;;;;;;;3.92;0.75;;;24.30;72.30;;;;;;4921041;29;20034;-78
2022/08/23 09:04:17;;;;;;;1.92;0.73;;;24.30;72.30;;;;;;4922148;29;20035;-77
2022/08/23 09:06:57;;;;;;;2.17;0.73;;;24.50;72.20;;;;;;4922530;29;20042;-77
2022/08/23 09:10:08;;;;;;;0.93;0.82;;;24.60;72.30;;;;;;4922992;29;20058;-78
2022/08/23 09:13:11;;;;;;;3.88;0.75;;;24.70;71.60;;;;;;4911124;29;20524;-75
2022/08/23 09:16:14;;;;;;;1.20;0.90;;;24.70;71.40;;;;;;4919918;29;20028;-77
2022/08/23 09:18:39;;;;;;;1.77;1.20;;;24.80;70.10;;;;;;4922160;29;20493;-78
2022/08/23 09:21:07;;;;;;;1.13;0.55;;;24.90;70.30;;;;;;4920072;29;20074;-77
2022/08/23 09:23:44;;;;;;;3.22;0.68;;;24.90;69.70;;;;;;4921958;29;20032;-78
2022/08/23 09:26:22;;;;;;;2.85;0.85;;;24.90;69.90;;;;;;4922062;29;20058;-77
2022/08/23 09:28:53;;;;;;;3.92;0.95;;;24.80;70.20;;;;;;4922153;29;20047;-77
2022/08/23 09:31:38;;;;;;;3.13;0.75;;;24.90;70.70;;;;;;4919945;29;20098;-76
2022/08/23 09:34:04;;;;;;;2.58;0.50;;;25.10;69.50;;;;;;4921031;29;20025;-76
2022/08/23 09:36:37;;;;;;;2.55;0.60;;;25.20;69.60;;;;;;4922710;29;20404;-77
2022/08/23 09:39:29;;;;;;;3.05;0.68;;;25.30;68.50;;;;;;4921972;29;20032;-79
2022/08/23 09:41:54;;;;;;;1.80;0.85;;;25.30;68.40;;;;;;4921955;29;20385;-83
2022/08/23 09:44:34;;;;;;;3.58;0.77;;;25.30;68.70;;;;;;4921779;29;20035;-78
2022/08/23 09:47:07;;;;;;;1.42;0.60;;;25.50;68.50;;;;;;4920531;29;20038;-82
2022/08/23 09:49:33;;;;;;;2.22;0.82;;;25.60;67.90;;;;;;4922625;29;20055;-79
2022/08/23 09:52:19;;;;;;;4.20;0.93;;;25.50;67.70;;;;;;4920401;29;20552;-77
2022/08/23 09:55:04;;;;;;;3.13;0.75;;;25.50;67.20;;;;;;4922236;29;20020;-74
2022/08/23 09:57:33;;;;;;;2.30;0.88;;;25.60;67.10;;;;;;4920920;29;20404;-75
2022/08/23 10:00:16;;;;;;;1.40;0.90;;;25.60;67.30;;;;;;4922021;29;20019;-75
2022/08/23 10:02:42;;;;;;;3.13;1.02;;;25.70;67.30;;;;;;4920568;29;20649;-75
2022/08/23 10:05:35;;;;;;;3.08;1.08;;;25.80;66.40;;;;;;4921239;29;20044;-71
2022/08/23 10:08:02;;;;;;;3.33;1.13;;;25.90;67.00;;;;;;4922036;29;20032;-75
2022/08/23 10:10:45;;;;;;;3.97;0.98;;;26.00;65.60;;;;;;4921741;29;20032;-76
2022/08/23 10:13:11;;;;;;;2.22;1.00;;;26.00;64.20;;;;;;4921908;29;22006;-73
2022/08/23 10:15:42;;;;;;;2.53;1.00;;;25.90;65.00;;;;;;4921062;29;20027;-78
2022/08/23 10:18:53;;;;;;;1.80;0.68;;;25.90;64.90;;;;;;4919160;29;20028;-74
2022/08/23 10:21:56;;;;;;;5.15;0.85;;;26.00;65.60;;;;;;4898604;29;20067;-74
2022/08/23 10:24:43;;;;;;;3.35;1.02;;;26.10;64.40;;;;;;4903397;29;20036;-74
2022/08/23 10:30:26;;;;;;;2.17;0.95;;;26.20;65.10;;;;;;4921268;29;20437;-74
2022/08/23 10:33:06;;;;;;;1.38;0.77;;;26.40;65.00;;;;;;4924230;29;20028;-74
2022/08/23 10:36:10;;;;;;;9.75;1.02;;;26.50;64.40;;;;;;4922047;29;20032;-74
2022/08/23 10:38:48;;;;;;;1.88;0.70;;;26.50;63.60;;;;;;4896370;29;20128;-74
2022/08/23 10:42:10;;;;;;;4.55;0.60;;;26.60;62.70;;;;;;4924335;29;20529;-74
2022/08/23 10:44:48;;;;;;;1.65;1.33;;;26.70;63.60;;;;;;4855420;29;20038;-75
2022/08/23 10:47:27;;;;;;;1.63;0.65;;;27.10;64.10;;;;;;4852261;29;20039;-75
2022/08/23 10:49:54;;;;;;;5.53;1.58;;;27.30;62.60;;;;;;4897635;29;20036;-74
2022/08/23 10:52:28;;;;;;;4.97;0.60;;;27.20;61.90;;;;;;4924000;29;20042;-74
2022/08/23 10:55:15;;;;;;;5.70;1.85;;;27.10;62.00;;;;;;4922940;29;20107;-74
2022/08/23 10:57:45;;;;;;;5.88;2.60;;;27.00;61.50;;;;;;4921745;29;20037;-79
2022/08/23 11:00:21;;;;;;;3.28;1.52;;;26.80;62.40;;;;;;4923157;29;20485;-77
2022/08/23 11:03:04;;;;;;;6.80;1.20;;;27.10;62.70;;;;;;4925088;29;20511;-76
2022/08/23 11:05:34;;;;;;;2.53;1.20;;;27.20;61.90;;;;;;4925288;29;20032;-78
2022/08/23 11:08:07;;;;;;;5.03;1.98;;;27.20;62.10;;;;;;4924170;29;20025;-77
2022/08/23 11:10:38;;;;;;;3.90;1.13;;;27.30;61.80;;;;;;4923790;29;20481;-77
2022/08/23 11:13:21;;;;;;;2.35;0.65;;;27.30;61.00;;;;;;4922623;29;20094;-82
2022/08/23 11:16:21;;;;;;;5.00;0.80;;;27.10;62.10;;;;;;4924326;29;20055;-81
2022/08/23 11:18:49;;;;;;;2.60;1.10;;;27.00;61.70;;;;;;4922710;29;20032;-81
2022/08/23 11:21:17;;;;;;;3.42;1.20;;;27.20;61.70;;;;;;4923403;29;20040;-81
2022/08/23 11:23:47;;;;;;;3.38;2.10;;;27.40;61.60;;;;;;4923529;29;20039;-82
2022/08/23 11:26:22;;;;;;;3.47;1.23;;;27.60;61.20;;;;;;4923358;29;20842;-83
2022/08/23 11:28:49;;;;;;;12.60;1.67;;;27.60;59.90;;;;;;4925296;29;20028;-86
2022/08/23 11:31:33;;;;;;;5.28;1.40;;;27.50;60.50;;;;;;4922699;29;20055;-80
2022/08/23 11:34:11;;;;;;;5.55;0.70;;;27.40;61.30;;;;;;4923409;29;20059;-83
2022/08/23 11:36:37;;;;;;;6.15;3.00;;;27.60;60.40;;;;;;4923985;29;20052;-83
2022/08/23 11:39:09;;;;;;;5.75;2.10;;;27.60;60.90;;;;;;4922955;29;20127;-82
2022/08/23 11:41:53;;;;;;;4.22;1.13;;;27.80;60.00;;;;;;4923773;29;20027;-80
2022/08/23 11:44:31;;;;;;;2.13;0.70;;;28.10;60.00;;;;;;4923529;29;20036;-79
2022/08/23 11:47:00;;;;;;;2.75;0.68;;;28.20;58.40;;;;;;4921445;29;20061;-78
2022/08/23 11:49:29;;;;;;;3.67;0.93;;;28.20;58.90;;;;;;4924409;29;20503;-78
2022/08/23 11:52:32;;;;;;;1.52;0.60;;;28.20;58.30;;;;;;4923807;29;20028;-80
2022/08/23 11:55:42;;;;;;;1.13;0.57;;;28.30;57.90;;;;;;4922841;29;20024;-79
2022/08/23 11:58:42;;;;;;;1.65;0.75;;;28.20;58.30;;;;;;4879123;29;20102;-79
2022/08/23 12:01:11;;;;;;;3.40;0.93;;;28.10;58.60;;;;;;4875412;29;20400;-78
2022/08/23 12:03:55;;;;;;;4.78;0.88;;;28.10;56.70;;;;;;4922099;29;20039;-80
2022/08/23 12:06:38;;;;;;;2.28;0.65;;;28.10;57.20;;;;;;4923753;29;20404;-77
2022/08/23 12:09:12;;;;;;;1.63;0.90;;;28.00;55.60;;;;;;4923025;29;20087;-75
2022/08/23 12:12:11;;;;;;;1.30;0.60;;;27.90;56.30;;;;;;4923652;29;20444;-78
2022/08/23 12:14:44;;;;;;;2.72;0.82;;;27.90;56.40;;;;;;4923366;29;20024;-79
2022/08/23 12:17:15;;;;;;;4.10;0.57;;;28.00;56.80;;;;;;4921378;29;20038;-77
2022/08/23 12:20:06;;;;;;;2.38;0.75;;;28.00;56.10;;;;;;4923154;29;20028;-80
2022/08/23 12:22:50;;;;;;;1.00;0.70;;;27.90;56.60;;;;;;4923105;29;20031;-81
2022/08/23 12:25:19;;;;;;;4.78;0.60;;;28.10;56.80;;;;;;4922902;29;20457;-80
2022/08/23 12:27:48;;;;;;;2.80;0.88;;;28.20;55.40;;;;;;4921848;29;20028;-77
2022/08/23 12:30:32;;;;;;;3.33;0.75;;;28.40;55.60;;;;;;4921962;29;20454;-81
2022/08/23 12:33:12;;;;;;;3.15;0.47;;;28.60;55.50;;;;;;4924537;29;20028;-81
2022/08/23 12:35:42;;;;;;;2.22;1.55;;;28.60;55.50;;;;;;4923029;29;20027;-80
2022/08/23 12:38:16;;;;;;;2.80;1.15;;;28.60;54.00;;;;;;4922635;29;20538;-83
2022/08/23 12:40:45;;;;;;;2.53;1.00;;;28.50;54.90;;;;;;4922921;29;20523;-77
2022/08/23 12:43:13;;;;;;;3.40;0.80;;;28.60;55.00;;;;;;4922579;29;20134;-79
2022/08/23 12:45:43;;;;;;;2.40;0.80;;;28.70;55.00;;;;;;4923297;29;20031;-80
2022/08/23 12:48:11;;;;;;;3.50;2.78;;;28.90;55.30;;;;;;4921830;29;20039;-81
2022/08/23 12:50:40;;;;;;;3.13;1.80;;;28.90;53.40;;;;;;4920512;29;20428;-82
2022/08/23 12:53:09;;;;;;;8.57;3.92;;;28.70;53.50;;;;;;4920148;29;20036;-76
2022/08/23 12:55:48;;;;;;;2.67;2.22;;;28.60;54.00;;;;;;4923363;29;20433;-81
2022/08/23 12:58:16;;;;;;;3.50;1.42;;;28.60;54.20;;;;;;4923593;29;20552;-80
2022/08/23 13:00:57;;;;;;;2.55;1.27;;;28.70;53.50;;;;;;4923581;29;20028;-80
2022/08/23 13:03:35;;;;;;;1.75;1.35;;;28.70;53.90;;;;;;4922274;29;20028;-77
2022/08/23 13:06:09;;;;;;;5.50;2.92;;;28.70;52.10;;;;;;4921680;29;20576;-78
2022/08/23 13:08:40;;;;;;;3.65;1.27;;;28.60;52.20;;;;;;4921643;29;20083;-78
2022/08/23 13:11:08;;;;;;;2.38;1.38;;;28.60;51.60;;;;;;4922811;29;20040;-75
2022/08/23 13:13:38;;;;;;;1.35;0.77;;;28.80;52.30;;;;;;4923064;29;20076;-75
2022/08/23 13:16:22;;;;;;;3.88;3.40;;;28.80;53.00;;;;;;4922326;29;20032;-76